createdAt,value
2022-10-16T00:02:03.388Z,15.36
2022-10-16T00:05:06.811Z,15.23
2022-10-16T00:08:10.159Z,15.27
2022-10-16T00:11:15.446Z,15.15
2022-10-16T00:14:17.661Z,15.10
2022-10-16T00:17:19.885Z,15.01
2022-10-16T00:20:22.681Z,15.06
2022-10-16T00:23:44.553Z,14.89
2022-10-16T00:26:46.836Z,14.99
2022-10-16T00:29:53.323Z,15.16
2022-10-16T00:32:55.738Z,15.00
2022-10-16T00:36:03.735Z,14.95
2022-10-16T00:39:06.522Z,15.16
2022-10-16T00:42:16.160Z,15.06
2022-10-16T00:45:18.701Z,15.04
2022-10-16T00:48:21.011Z,15.07
2022-10-16T00:51:28.707Z,15.01
2022-10-16T00:54:33.690Z,14.85
2022-10-16T00:57:37.089Z,14.70
2022-10-16T01:00:39.589Z,14.78
2022-10-16T01:03:41.795Z,14.67
2022-10-16T01:07:02.732Z,14.55
2022-10-16T01:10:09.570Z,14.51
2022-10-16T01:13:19.482Z,14.50
2022-10-16T01:16:33.681Z,14.54
2022-10-16T01:19:57.030Z,14.64
2022-10-16T01:23:37.289Z,14.72
2022-10-16T01:27:07.141Z,14.52
2022-10-16T01:30:27.351Z,14.31
2022-10-16T01:33:39.048Z,14.31
2022-10-16T01:36:47.476Z,14.27
2022-10-16T01:39:52.413Z,14.16
2022-10-16T01:43:01.226Z,14.08
2022-10-16T01:46:04.258Z,14.14
2022-10-16T01:49:08.919Z,14.22
2022-10-16T01:52:17.520Z,14.28
2022-10-16T01:55:23.065Z,14.37
2022-10-16T01:58:28.245Z,14.26
2022-10-16T02:01:34.744Z,14.33
2022-10-16T02:04:45.232Z,14.32
2022-10-16T02:07:48.289Z,14.19
2022-10-16T02:10:51.082Z,14.37
2022-10-16T02:14:04.108Z,14.27
2022-10-16T02:17:18.567Z,14.34
2022-10-16T02:20:26.303Z,14.27
2022-10-16T02:23:48.590Z,14.30
2022-10-16T02:26:59.392Z,14.20
2022-10-16T02:30:18.027Z,13.99
2022-10-16T02:33:24.500Z,14.11
2022-10-16T02:36:28.503Z,14.14
2022-10-16T02:39:32.166Z,14.15
2022-10-16T02:42:37.904Z,14.27
2022-10-16T02:45:40.062Z,14.05
2022-10-16T02:48:42.387Z,14.20
2022-10-16T02:51:45.549Z,14.02
2022-10-16T02:54:47.800Z,14.06
2022-10-16T02:57:50.908Z,14.07
2022-10-16T03:00:53.443Z,13.99
2022-10-16T03:03:55.634Z,14.28
2022-10-16T03:06:57.749Z,14.05
2022-10-16T03:10:02.472Z,14.22
2022-10-16T03:13:05.163Z,14.14
2022-10-16T03:16:07.292Z,14.15
2022-10-16T03:19:10.384Z,14.06
2022-10-16T03:22:12.611Z,14.18
2022-10-16T03:25:14.799Z,13.94
2022-10-16T03:28:16.956Z,13.78
2022-10-16T03:31:20.329Z,13.82
2022-10-16T03:34:23.358Z,13.71
2022-10-16T03:37:25.850Z,13.73
2022-10-16T03:40:29.311Z,13.75
2022-10-16T03:43:37.413Z,13.69
2022-10-16T03:46:40.492Z,13.75
2022-10-16T03:49:43.617Z,13.65
2022-10-16T03:52:46.854Z,13.69
2022-10-16T03:55:49.011Z,14.00
2022-10-16T03:58:51.858Z,14.02
2022-10-16T04:01:53.907Z,14.09
2022-10-16T04:04:56.043Z,13.98
2022-10-16T04:07:58.424Z,14.00
2022-10-16T04:11:00.576Z,13.98
2022-10-16T04:14:02.817Z,13.99
2022-10-16T04:17:04.948Z,13.93
2022-10-16T04:20:09.341Z,13.77
2022-10-16T04:23:11.607Z,13.69
2022-10-16T04:26:14.933Z,13.65
2022-10-16T04:29:17.665Z,13.67
2022-10-16T04:32:19.629Z,13.68
2022-10-16T04:35:22.847Z,13.76
2022-10-16T04:38:25.184Z,13.77
2022-10-16T04:41:27.568Z,13.61
2022-10-16T04:44:30.994Z,13.79
2022-10-16T04:47:33.764Z,14.18
2022-10-16T04:50:35.764Z,14.90
2022-10-16T04:53:41.160Z,15.41
2022-10-16T04:56:51.449Z,15.21
2022-10-16T04:59:53.651Z,15.30
2022-10-16T05:02:55.815Z,15.28
2022-10-16T05:05:58.023Z,15.15
2022-10-16T05:08:59.988Z,14.82
2022-10-16T05:12:03.061Z,14.67
2022-10-16T05:15:05.795Z,14.47
2022-10-16T05:18:07.786Z,14.47
2022-10-16T05:21:09.947Z,14.35
2022-10-16T05:24:13.160Z,14.36
2022-10-16T05:27:20.042Z,14.47
2022-10-16T05:30:22.282Z,14.53
2022-10-16T05:33:26.811Z,14.50
2022-10-16T05:36:28.903Z,14.56
2022-10-16T05:39:30.939Z,14.77
2022-10-16T05:42:33.124Z,15.44
2022-10-16T05:45:35.360Z,15.65
2022-10-16T05:48:37.393Z,15.73
2022-10-16T05:51:39.533Z,15.87
2022-10-16T05:54:41.564Z,16.03
2022-10-16T05:57:43.647Z,16.02
2022-10-16T06:00:45.733Z,16.11
2022-10-16T06:03:47.985Z,16.16
2022-10-16T06:06:49.996Z,16.16
2022-10-16T06:09:53.655Z,16.12
2022-10-16T06:12:55.642Z,16.11
2022-10-16T06:16:00.146Z,16.09
2022-10-16T06:19:07.588Z,16.18
2022-10-16T06:22:09.618Z,16.21
2022-10-16T06:25:11.775Z,16.25
2022-10-16T06:28:15.938Z,16.24
2022-10-16T06:31:18.756Z,16.50
2022-10-16T06:34:20.833Z,16.51
2022-10-16T06:37:23.547Z,16.63
2022-10-16T06:40:25.829Z,16.61
2022-10-16T06:43:31.121Z,16.57
2022-10-16T06:46:33.141Z,16.64
2022-10-16T06:49:35.214Z,16.61
2022-10-16T06:52:37.202Z,16.65
2022-10-16T06:55:39.495Z,16.68
2022-10-16T06:58:42.499Z,16.64
2022-10-16T07:01:44.554Z,16.63
2022-10-16T07:04:46.596Z,16.66
2022-10-16T07:07:48.668Z,16.69
2022-10-16T07:10:59.591Z,16.71
2022-10-16T07:14:01.810Z,16.75
2022-10-16T07:17:03.884Z,16.72
2022-10-16T07:20:06.774Z,16.82
2022-10-16T07:23:08.786Z,16.77
2022-10-16T07:26:11.812Z,16.73
2022-10-16T07:29:21.455Z,16.80
2022-10-16T07:32:23.665Z,16.89
2022-10-16T07:35:25.961Z,16.82
2022-10-16T07:38:28.118Z,16.77
2022-10-16T07:41:30.260Z,16.87
2022-10-16T07:44:32.777Z,16.81
2022-10-16T07:47:34.810Z,16.88
2022-10-16T07:50:36.889Z,16.65
2022-10-16T07:53:39.580Z,16.94
2022-10-16T07:56:43.862Z,17.07
2022-10-16T07:59:47.335Z,17.16
2022-10-16T08:02:49.415Z,17.16
2022-10-16T08:05:51.795Z,17.18
2022-10-16T08:08:54.103Z,17.14
2022-10-16T08:12:01.310Z,17.16
2022-10-16T08:15:04.679Z,17.23
2022-10-16T08:18:07.059Z,17.19
2022-10-16T08:21:18.595Z,17.16
2022-10-16T08:24:23.640Z,17.23
2022-10-16T08:27:25.775Z,17.29
2022-10-16T08:30:27.989Z,17.39
2022-10-16T08:33:31.494Z,17.38
2022-10-16T08:36:33.755Z,17.36
2022-10-16T08:39:35.802Z,17.42
2022-10-16T08:43:09.167Z,17.79
2022-10-16T08:46:29.920Z,17.79
2022-10-16T08:49:32.662Z,17.57
2022-10-16T08:52:40.168Z,17.68
2022-10-16T08:55:51.489Z,17.66
2022-10-16T08:58:58.056Z,17.73
2022-10-16T09:02:03.573Z,17.75
2022-10-16T09:05:20.822Z,17.82
2022-10-16T09:08:35.892Z,17.74
2022-10-16T09:11:49.698Z,17.90
2022-10-16T09:15:00.927Z,17.78
2022-10-16T09:18:11.285Z,17.89
2022-10-16T09:21:36.724Z,17.90
2022-10-16T09:24:38.817Z,17.85
2022-10-16T09:27:41.513Z,17.83
2022-10-16T09:30:44.090Z,17.91
2022-10-16T09:33:51.640Z,17.92
2022-10-16T09:36:53.701Z,17.95
2022-10-16T09:39:56.207Z,17.92
2022-10-16T09:43:04.809Z,17.85
2022-10-16T09:46:06.800Z,17.85
2022-10-16T09:49:38.002Z,17.77
2022-10-16T09:52:40.048Z,17.83
2022-10-16T09:55:52.947Z,17.91
2022-10-16T09:59:02.544Z,17.92
2022-10-16T10:02:14.900Z,17.87
2022-10-16T10:05:23.856Z,17.83
2022-10-16T10:08:26.364Z,17.67
2022-10-16T10:11:58.831Z,17.83
2022-10-16T10:15:12.132Z,17.67
2022-10-16T10:18:25.008Z,17.77
2022-10-16T10:21:27.216Z,17.77
2022-10-16T10:24:29.235Z,17.80
2022-10-16T10:27:51.582Z,17.78
2022-10-16T10:31:21.423Z,17.88
2022-10-16T10:34:45.226Z,17.92
2022-10-16T10:38:07.908Z,17.73
2022-10-16T10:41:26.643Z,17.92
2022-10-16T10:45:03.518Z,17.86
2022-10-16T10:48:48.513Z,17.72
2022-10-16T10:52:12.849Z,17.79
2022-10-16T10:55:20.933Z,17.82
2022-10-16T10:58:31.025Z,17.84
2022-10-16T11:02:10.356Z,17.80
2022-10-16T11:05:35.052Z,17.82
2022-10-16T11:08:42.274Z,17.97
2022-10-16T11:11:54.335Z,18.00
2022-10-16T11:15:21.174Z,18.04
2022-10-16T11:18:31.300Z,17.98
2022-10-16T11:21:40.905Z,18.07
2022-10-16T11:24:45.590Z,18.04
2022-10-16T11:28:07.204Z,18.04
2022-10-16T11:31:27.139Z,18.00
2022-10-16T11:34:51.988Z,17.96
2022-10-16T11:37:57.758Z,17.93
2022-10-16T11:41:30.530Z,17.93
2022-10-16T11:44:48.279Z,18.01
2022-10-16T11:48:02.012Z,17.97
2022-10-16T11:51:17.330Z,18.04
2022-10-16T11:54:27.906Z,18.00
2022-10-16T11:57:35.146Z,18.05
2022-10-16T12:01:19.749Z,18.10
2022-10-16T12:04:40.889Z,18.01
2022-10-16T12:08:04.419Z,17.93
2022-10-16T12:11:22.186Z,18.03
2022-10-16T12:15:11.259Z,18.05
2022-10-16T12:18:03.403Z,18.03
2022-10-16T12:21:07.452Z,18.05
2022-10-16T12:24:33.575Z,18.04
2022-10-16T12:27:36.747Z,17.94
2022-10-16T12:30:38.931Z,17.98
2022-10-16T12:33:43.177Z,18.00
2022-10-16T12:36:45.302Z,18.00
2022-10-16T12:39:49.484Z,18.01
2022-10-16T12:42:51.792Z,17.99
2022-10-16T12:46:05.841Z,18.01
2022-10-16T12:49:25.652Z,18.09
2022-10-16T12:52:38.194Z,18.06
2022-10-16T12:56:15.170Z,18.06
2022-10-16T12:59:20.024Z,18.08
2022-10-16T13:02:40.334Z,18.08
2022-10-16T13:06:00.496Z,18.07
2022-10-16T13:09:33.395Z,18.08
2022-10-16T13:12:55.847Z,18.06
2022-10-16T13:16:36.595Z,18.02
2022-10-16T13:19:55.879Z,17.90
2022-10-16T13:23:32.995Z,17.95
2022-10-16T13:26:49.906Z,17.93
2022-10-16T13:30:03.103Z,17.91
2022-10-16T13:33:11.350Z,17.97
2022-10-16T13:36:25.116Z,17.90
2022-10-16T13:39:29.467Z,17.91
2022-10-16T13:42:31.687Z,17.83
2022-10-16T13:45:34.086Z,17.80
2022-10-16T13:48:36.332Z,17.89
2022-10-16T13:51:38.471Z,17.71
2022-10-16T13:54:40.551Z,17.84
2022-10-16T13:57:43.735Z,17.83
2022-10-16T14:01:27.270Z,17.84
2022-10-16T14:04:34.404Z,17.81
2022-10-16T14:07:36.876Z,17.79
2022-10-16T14:10:39.552Z,17.83
2022-10-16T14:13:46.603Z,17.70
2022-10-16T14:16:49.119Z,17.71
2022-10-16T14:19:57.780Z,17.67
2022-10-16T14:23:31.841Z,18.14
2022-10-16T14:26:46.813Z,18.62
2022-10-16T14:29:51.826Z,18.82
2022-10-16T14:33:02.467Z,19.04
2022-10-16T14:36:10.703Z,19.30
2022-10-16T14:39:24.149Z,19.61
2022-10-16T14:42:27.012Z,20.14
2022-10-16T14:45:32.175Z,20.46
2022-10-16T14:48:34.826Z,20.69
2022-10-16T14:51:46.009Z,20.90
2022-10-16T14:54:51.577Z,20.99
2022-10-16T14:57:56.933Z,20.91
2022-10-16T15:01:01.831Z,20.83
2022-10-16T15:04:04.330Z,20.68
2022-10-16T15:07:06.565Z,20.50
2022-10-16T15:10:08.975Z,20.47
2022-10-16T15:13:15.259Z,20.15
2022-10-16T15:16:18.023Z,20.09
2022-10-16T15:19:20.011Z,19.98
2022-10-16T15:22:24.524Z,19.78
2022-10-16T15:25:34.235Z,19.65
2022-10-16T15:28:36.934Z,19.46
2022-10-16T15:31:39.891Z,19.31
2022-10-16T15:34:41.972Z,19.08
2022-10-16T15:37:43.962Z,18.87
2022-10-16T15:40:47.779Z,18.89
2022-10-16T15:43:51.281Z,18.83
2022-10-16T15:46:56.213Z,18.69
2022-10-16T15:49:58.227Z,18.56
2022-10-16T15:53:00.305Z,18.42
2022-10-16T15:56:09.679Z,18.30
2022-10-16T15:59:13.477Z,18.13
2022-10-16T16:02:15.559Z,18.14
2022-10-16T16:05:17.695Z,17.91
2022-10-16T16:08:19.855Z,17.91
2022-10-16T16:11:23.470Z,17.93
2022-10-16T16:14:27.229Z,17.78
2022-10-16T16:29:01.362Z,17.61
2022-10-16T16:32:59.188Z,17.54
2022-10-16T16:36:10.317Z,17.28
2022-10-16T16:39:15.481Z,17.35
2022-10-16T16:42:18.476Z,17.34
2022-10-16T16:45:20.707Z,17.18
2022-10-16T16:48:23.332Z,17.12
2022-10-16T16:51:26.435Z,17.11
2022-10-16T16:54:28.723Z,16.95
2022-10-16T16:57:30.902Z,16.86
2022-10-16T17:00:33.076Z,17.03
2022-10-16T17:03:38.666Z,16.70
2022-10-16T17:06:41.466Z,16.84
2022-10-16T17:09:44.177Z,16.79
2022-10-16T17:12:46.353Z,16.83
2022-10-16T17:15:49.793Z,17.28
2022-10-16T17:18:53.745Z,17.34
2022-10-16T17:21:59.327Z,17.52
2022-10-16T17:25:05.387Z,17.14
2022-10-16T17:28:12.856Z,17.09
2022-10-16T17:31:18.190Z,17.21
2022-10-16T17:34:20.328Z,17.31
2022-10-16T17:37:22.780Z,17.35
2022-10-16T17:40:26.267Z,17.04
2022-10-16T17:43:29.385Z,17.05
2022-10-16T17:46:36.919Z,16.84
2022-10-16T17:49:42.366Z,17.24
2022-10-16T17:52:45.922Z,17.21
2022-10-16T17:55:48.403Z,17.23
2022-10-16T18:02:35.072Z,17.65
2022-10-16T18:05:38.723Z,17.73
2022-10-16T18:08:40.845Z,18.16
2022-10-16T18:11:42.867Z,18.34
2022-10-16T18:14:45.077Z,18.55
2022-10-16T18:17:48.086Z,18.60
2022-10-16T18:20:59.842Z,18.37
2022-10-16T18:24:02.092Z,18.13
2022-10-16T18:27:04.392Z,17.46
2022-10-16T18:30:07.054Z,17.37
2022-10-16T18:33:09.072Z,17.12
2022-10-16T18:36:12.159Z,16.96
2022-10-16T18:39:17.046Z,16.81
2022-10-16T18:42:20.410Z,16.63
2022-10-16T18:45:22.448Z,16.57
2022-10-16T18:48:32.560Z,17.26
2022-10-16T18:51:38.816Z,17.54
2022-10-16T18:54:42.916Z,16.78
2022-10-16T18:57:48.268Z,16.47
2022-10-16T19:01:07.604Z,16.11
2022-10-16T19:04:14.201Z,16.19
2022-10-16T19:07:28.958Z,16.37
2022-10-16T19:10:32.120Z,15.70
2022-10-16T19:13:45.881Z,15.95
2022-10-16T19:34:35.373Z,15.55
2022-10-16T19:41:10.444Z,15.35
2022-10-16T19:44:14.896Z,15.09
2022-10-16T19:47:19.626Z,15.09
2022-10-16T19:50:24.569Z,14.96
2022-10-16T19:53:28.692Z,14.92
2022-10-16T19:56:33.122Z,15.15
2022-10-16T19:59:35.711Z,14.95
2022-10-16T20:02:37.987Z,15.05
2022-10-16T20:05:40.116Z,14.85
2022-10-16T20:08:46.026Z,14.77
2022-10-16T20:11:48.257Z,14.70
2022-10-16T20:14:52.830Z,14.80
2022-10-16T20:17:54.920Z,14.87
2022-10-16T20:20:57.136Z,15.12
2022-10-16T20:24:06.912Z,15.16
2022-10-16T20:27:09.147Z,14.89
2022-10-16T20:30:13.351Z,14.90
2022-10-16T20:33:16.747Z,15.00
2022-10-16T20:36:20.853Z,15.03
2022-10-16T20:39:23.369Z,14.85
2022-10-16T20:42:30.682Z,14.62
2022-10-16T20:45:33.374Z,14.56
2022-10-16T20:48:36.929Z,14.51
2022-10-16T20:51:39.307Z,14.18
2022-10-16T20:54:46.125Z,14.22
2022-10-16T20:57:48.656Z,14.33
2022-10-16T21:00:50.785Z,14.12
2022-10-16T21:03:55.818Z,14.23
2022-10-16T21:06:58.916Z,13.97
2022-10-16T21:10:00.943Z,13.82
2022-10-16T21:13:04.525Z,14.20
2022-10-16T21:16:07.526Z,14.29
2022-10-16T21:19:09.844Z,14.15
2022-10-16T21:22:12.141Z,13.96
2022-10-16T21:25:14.317Z,14.02
2022-10-16T21:28:17.007Z,14.24
2022-10-16T21:31:20.662Z,14.24
2022-10-16T21:34:22.720Z,13.86
2022-10-16T21:37:25.094Z,13.97
2022-10-16T21:40:30.287Z,13.90
2022-10-16T21:43:33.241Z,13.61
2022-10-16T21:46:37.913Z,13.89
2022-10-16T21:49:40.007Z,13.79
2022-10-16T21:52:42.311Z,13.70
2022-10-16T21:55:46.080Z,13.62
2022-10-16T21:58:50.526Z,13.70
2022-10-16T22:01:55.654Z,13.72
2022-10-16T22:04:57.732Z,13.73
2022-10-16T22:07:59.749Z,13.84
2022-10-16T22:11:13.797Z,14.01
2022-10-16T22:14:18.614Z,13.89
2022-10-16T22:17:20.697Z,13.90
2022-10-16T22:20:22.762Z,13.73
2022-10-16T22:23:24.941Z,13.82
2022-10-16T22:26:27.622Z,13.75
2022-10-16T22:29:29.660Z,13.72
2022-10-16T22:32:33.631Z,13.69
2022-10-16T22:35:38.163Z,13.43
2022-10-16T22:38:41.301Z,13.37
2022-10-16T22:41:43.655Z,13.62
2022-10-16T22:44:45.684Z,13.44
2022-10-16T22:47:47.880Z,13.50
2022-10-16T22:50:50.180Z,13.55
2022-10-16T22:53:53.255Z,13.57
2022-10-16T22:56:55.420Z,13.45
2022-10-16T22:59:59.854Z,13.58
2022-10-16T23:03:02.030Z,13.65
2022-10-16T23:06:05.975Z,13.50
2022-10-16T23:09:08.049Z,13.47
2022-10-16T23:12:10.492Z,13.62
2022-10-16T23:15:12.733Z,13.39
2022-10-16T23:18:14.866Z,13.51
2022-10-16T23:21:19.921Z,13.53
2022-10-16T23:24:22.967Z,13.44
2022-10-16T23:27:27.872Z,13.22
2022-10-16T23:30:30.573Z,13.06
2022-10-16T23:33:34.422Z,13.25
2022-10-16T23:36:36.485Z,13.18
2022-10-16T23:39:38.577Z,13.05
2022-10-16T23:42:42.101Z,13.07
2022-10-16T23:45:44.450Z,13.09
2022-10-16T23:48:46.914Z,13.04
2022-10-16T23:51:49.137Z,13.51
2022-10-16T23:54:51.242Z,13.35
2022-10-16T23:57:53.576Z,13.49
